Time;durP1;ratioP1;P1;durP2;ratioP2;P2;SDS_P1;SDS_P2;PMS_P1;PMS_P2;Temp;Humidity;BMP_temperature;BMP_pressure;BME280_temperature;BME280_humidity;BME280_pressure;Samples;Min_cycle;Max_cycle;Signal;HPM_P1;HPM_P2
2021/11/07 00:09:22;;;;;;;20.63;13.40;;;;;;;8.05;99.31;98754.63;4936562;29;20046;-75
2021/11/07 00:11:53;;;;;;;18.77;12.05;;;;;;;7.99;100.00;98748.31;4936624;29;20047;-74
2021/11/07 00:14:19;;;;;;;24.77;13.40;;;;;;;7.94;100.00;98740.13;4937542;29;20469;-76
2021/11/07 00:16:44;;;;;;;24.20;13.13;;;;;;;7.97;100.00;98736.03;4939511;29;20024;-75
2021/11/07 00:19:27;;;;;;;21.85;13.00;;;;;;;7.99;100.00;98737.41;4922457;29;20047;-75
2021/11/07 00:27:08;;;;;;;22.52;13.50;;;;;;;7.97;100.00;98738.78;4937088;29;20054;-76
2021/11/07 00:29:47;;;;;;;22.30;14.20;;;;;;;8.06;100.00;98754.38;4937933;29;20043;-75
2021/11/07 00:32:22;;;;;;;24.75;14.35;;;;;;;8.00;100.00;98763.59;4918694;29;20055;-77
2021/11/07 00:35:33;;;;;;;21.17;13.17;;;;;;;8.07;100.00;98760.66;4932004;29;20035;-75
2021/11/07 00:37:51;;;;;;;20.50;12.35;;;;;;;8.08;100.00;98754.94;4925685;29;20318;-77
2021/11/07 00:40:27;;;;;;;21.83;13.02;;;;;;;8.00;100.00;98746.41;4927027;29;20032;-76
2021/11/07 00:48:24;;;;;;;27.38;14.82;;;;;;;7.96;100.00;98748.00;4913087;29;20085;-74
2021/11/07 00:51:07;;;;;;;19.25;13.27;;;;;;;8.05;100.00;98747.28;4918545;29;20185;-75
2021/11/07 01:01:27;;;;;;;21.42;14.30;;;;;;;8.04;99.70;98744.84;4935010;29;20441;-76
2021/11/07 01:03:53;;;;;;;21.60;13.75;;;;;;;8.03;100.00;98732.28;4918416;29;20413;-76
2021/11/07 01:06:19;;;;;;;23.77;14.15;;;;;;;7.97;100.00;98727.88;4935620;29;20027;-75
2021/11/07 01:08:45;;;;;;;23.00;13.95;;;;;;;7.92;100.00;98725.13;4935867;29;20086;-76
2021/11/07 01:11:11;;;;;;;22.73;13.10;;;;;;;7.96;100.00;98724.31;4935400;29;20032;-75
2021/11/07 01:13:36;;;;;;;21.98;14.05;;;;;;;8.09;100.00;98720.34;4935338;29;20100;-76
2021/11/07 01:16:02;;;;;;;20.70;13.60;;;;;;;8.13;100.00;98713.31;4935463;29;20031;-75
2021/11/07 01:18:27;;;;;;;26.50;14.00;;;;;;;8.08;100.00;98710.56;4935564;29;20040;-75
2021/11/07 01:20:54;;;;;;;25.17;14.18;;;;;;;8.01;100.00;98707.22;4935259;29;20063;-75
2021/11/07 01:25:57;;;;;;;21.35;12.82;;;;;;;8.01;100.00;98693.59;4935037;29;20113;-76
2021/11/07 01:28:24;;;;;;;21.52;13.27;;;;;;;7.93;100.00;98689.44;4934934;29;20496;-75
2021/11/07 01:30:56;;;;;;;18.48;13.15;;;;;;;7.98;100.00;98692.22;4934975;29;20040;-76
2021/11/07 01:33:25;;;;;;;20.70;13.15;;;;;;;8.04;100.00;98687.63;4934990;29;20043;-75
2021/11/07 01:38:48;;;;;;;25.33;12.82;;;;;;;7.94;100.00;98682.91;4933618;29;20041;-75
2021/11/07 01:43:40;;;;;;;21.75;11.05;;;;;;;7.80;100.00;98683.63;4934623;29;20536;-75
2021/11/07 01:46:13;;;;;;;17.58;11.10;;;;;;;7.66;100.00;98683.22;4934655;29;20362;-76
2021/11/07 01:48:49;;;;;;;21.05;11.32;;;;;;;7.73;100.00;98683.00;4934786;29;20445;-76
2021/11/07 01:51:15;;;;;;;18.25;11.23;;;;;;;7.57;100.00;98682.03;4934631;29;20533;-75
2021/11/07 01:53:41;;;;;;;17.23;10.80;;;;;;;7.64;100.00;98679.94;4917533;29;20110;-75
2021/11/07 01:56:09;;;;;;;18.27;10.57;;;;;;;7.59;100.00;98670.88;4917653;29;20059;-75
2021/11/07 01:58:37;;;;;;;19.55;10.63;;;;;;;7.64;100.00;98668.22;4934706;29;20044;-75
2021/11/07 02:01:04;;;;;;;14.15;9.75;;;;;;;7.63;100.00;98658.41;4933672;29;20418;-75
2021/11/07 02:03:31;;;;;;;25.27;10.77;;;;;;;7.62;100.00;98664.91;4926962;29;20450;-75
2021/11/07 02:05:57;;;;;;;17.98;10.25;;;;;;;7.69;100.00;98660.09;4898423;29;20096;-75
2021/11/07 02:08:23;;;;;;;16.27;9.85;;;;;;;7.67;100.00;98662.25;4926408;29;20023;-75
2021/11/07 02:10:51;;;;;;;18.35;10.82;;;;;;;7.63;100.00;98661.13;4934271;29;20476;-75
2021/11/07 02:13:17;;;;;;;16.45;10.25;;;;;;;7.72;100.00;98659.56;4917223;29;20442;-75
2021/11/07 02:15:44;;;;;;;15.40;9.57;;;;;;;7.64;100.00;98658.16;4933333;29;20501;-75
2021/11/07 02:18:09;;;;;;;20.10;11.15;;;;;;;7.66;100.00;98650.53;4934236;29;20031;-76
2021/11/07 02:20:40;;;;;;;20.15;11.20;;;;;;;7.67;100.00;98652.19;4922220;29;20064;-76
2021/11/07 02:23:10;;;;;;;18.02;10.80;;;;;;;7.71;100.00;98652.47;4915016;29;20083;-75
2021/11/07 02:25:37;;;;;;;19.13;12.23;;;;;;;7.67;100.00;98652.19;4914983;29;20055;-75
2021/11/07 02:28:05;;;;;;;16.55;11.68;;;;;;;7.66;100.00;98650.53;4897777;29;20028;-76
2021/11/07 02:30:32;;;;;;;16.40;11.30;;;;;;;7.73;100.00;98644.88;4915798;29;20040;-75
2021/11/07 02:32:59;;;;;;;20.70;12.95;;;;;;;7.81;100.00;98647.94;4916328;29;20028;-76
2021/11/07 02:35:26;;;;;;;20.52;12.52;;;;;;;7.73;100.00;98640.25;4914735;29;20028;-75
2021/11/07 02:37:55;;;;;;;16.92;12.02;;;;;;;7.75;100.00;98637.25;4914497;29;20060;-75
2021/11/07 02:40:21;;;;;;;21.83;12.30;;;;;;;7.79;100.00;98638.41;4914697;29;20107;-76
2021/11/07 02:42:48;;;;;;;21.90;13.32;;;;;;;7.74;100.00;98641.88;4897233;29;20174;-75
2021/11/07 02:45:17;;;;;;;19.67;13.07;;;;;;;7.71;100.00;98636.97;4914512;29;20036;-76
2021/11/07 02:47:45;;;;;;;17.77;12.30;;;;;;;7.77;100.00;98629.69;4914879;29;20020;-76
2021/11/07 02:50:11;;;;;;;23.35;13.50;;;;;;;7.81;100.00;98634.31;4914311;29;20044;-75
2021/11/07 02:52:37;;;;;;;19.20;11.45;;;;;;;7.80;100.00;98626.44;4914625;29;20103;-76
2021/11/07 02:55:04;;;;;;;20.23;11.45;;;;;;;7.76;100.00;98626.13;4914363;29;20420;-75
2021/11/07 02:57:29;;;;;;;20.08;11.43;;;;;;;7.70;100.00;98619.00;4928717;29;20039;-76
2021/11/07 02:59:58;;;;;;;17.45;11.40;;;;;;;7.67;100.00;98615.97;4933151;29;20027;-74
2021/11/07 03:02:24;;;;;;;17.23;10.65;;;;;;;7.53;100.00;98613.69;4933295;29;20034;-76
2021/11/07 03:04:50;;;;;;;18.05;11.60;;;;;;;7.48;100.00;98605.50;4933410;29;21531;-76
2021/11/07 03:07:16;;;;;;;17.77;11.68;;;;;;;7.38;100.00;98597.22;4933231;29;20038;-76
2021/11/07 03:09:41;;;;;;;16.70;11.02;;;;;;;7.33;100.00;98610.78;4933192;29;20040;-75
2021/11/07 03:12:09;;;;;;;19.27;11.02;;;;;;;7.29;100.00;98611.56;4933598;29;20051;-75
2021/11/07 03:14:43;;;;;;;20.10;11.90;;;;;;;7.26;100.00;98610.19;4934471;29;20069;-76
2021/11/07 03:17:12;;;;;;;22.15;11.70;;;;;;;7.14;100.00;98612.22;4933719;29;20036;-76
2021/11/07 03:19:38;;;;;;;17.65;11.65;;;;;;;7.10;100.00;98605.66;4933378;29;20470;-76
2021/11/07 03:22:08;;;;;;;18.20;11.57;;;;;;;6.96;100.00;98593.53;4933192;29;20123;-77
2021/11/07 03:24:34;;;;;;;17.15;11.77;;;;;;;6.87;100.00;98595.06;4932843;29;20046;-76
2021/11/07 03:26:59;;;;;;;20.10;12.27;;;;;;;6.77;100.00;98592.25;4916179;29;20028;-76
2021/11/07 03:29:33;;;;;;;17.73;12.23;;;;;;;6.85;100.00;98595.34;4937373;29;20028;-77
2021/11/07 03:34:58;;;;;;;19.27;12.45;;;;;;;6.67;100.00;98600.31;4922864;29;20027;-76
2021/11/07 03:37:26;;;;;;;16.63;11.93;;;;;;;6.65;100.00;98599.72;4936767;29;20032;-77
2021/11/07 03:39:56;;;;;;;20.85;13.40;;;;;;;6.74;100.00;98600.91;4919709;29;20567;-76
2021/11/07 03:42:22;;;;;;;18.40;12.55;;;;;;;6.69;100.00;98600.88;4936576;29;20060;-76
2021/11/07 03:44:49;;;;;;;22.70;13.27;;;;;;;6.64;100.00;98603.53;4936667;29;20039;-75
2021/11/07 03:47:15;;;;;;;18.00;11.95;;;;;;;6.76;100.00;98609.66;4936842;29;20032;-76
2021/11/07 03:49:41;;;;;;;20.45;13.65;;;;;;;6.86;100.00;98607.84;4936503;29;20030;-75
2021/11/07 03:52:09;;;;;;;18.38;12.93;;;;;;;7.00;100.00;98614.53;4919323;29;20024;-77
2021/11/07 03:54:35;;;;;;;20.63;13.88;;;;;;;7.05;100.00;98611.03;4919664;29;20095;-76
2021/11/07 03:57:02;;;;;;;19.23;13.15;;;;;;;7.00;100.00;98608.28;4925470;29;20434;-76
2021/11/07 03:59:28;;;;;;;20.75;13.93;;;;;;;7.00;100.00;98613.72;4917395;29;20055;-76
2021/11/07 04:01:54;;;;;;;24.42;14.23;;;;;;;7.07;100.00;98611.63;4917310;29;20490;-75
2021/11/07 04:04:20;;;;;;;21.92;14.00;;;;;;;7.14;100.00;98617.66;4929190;29;20547;-75
2021/11/07 04:06:46;;;;;;;19.65;13.38;;;;;;;7.09;100.00;98614.91;4935802;29;20059;-76
2021/11/07 04:09:12;;;;;;;21.67;14.80;;;;;;;7.13;100.00;98628.81;4935707;29;20106;-76
2021/11/07 04:11:39;;;;;;;21.95;13.25;;;;;;;6.96;100.00;98628.91;4918953;29;20474;-77
2021/11/07 04:14:07;;;;;;;19.85;13.23;;;;;;;6.87;100.00;98627.72;4936166;29;20051;-75
2021/11/07 04:16:33;;;;;;;20.85;14.35;;;;;;;6.82;100.00;98631.22;4936183;29;20032;-75
2021/11/07 04:18:59;;;;;;;21.23;14.10;;;;;;;6.84;100.00;98620.06;4936552;29;20074;-76
2021/11/07 04:21:25;;;;;;;21.85;13.70;;;;;;;6.87;100.00;98617.66;4936294;29;20028;-76
2021/11/07 04:23:51;;;;;;;20.60;13.10;;;;;;;6.84;100.00;98603.75;4937460;29;20024;-75
2021/11/07 04:26:16;;;;;;;19.05;13.70;;;;;;;6.86;100.00;98601.63;4936024;29;20074;-75
2021/11/07 04:28:42;;;;;;;20.15;14.00;;;;;;;6.94;100.00;98593.00;4935775;29;20461;-75
2021/11/07 04:31:08;;;;;;;24.88;15.13;;;;;;;6.97;100.00;98574.25;4935763;29;20035;-76
2021/11/07 04:33:33;;;;;;;22.38;14.25;;;;;;;6.96;100.00;98579.94;4935890;29;20115;-76
2021/11/07 04:35:59;;;;;;;21.70;13.73;;;;;;;7.04;100.00;98582.22;4935835;29;20035;-76
2021/11/07 04:38:27;;;;;;;20.48;13.75;;;;;;;6.84;100.00;98609.19;4935120;29;20071;-75
2021/11/07 04:40:53;;;;;;;20.63;14.15;;;;;;;6.78;100.00;98610.22;4919016;29;20028;-80
2021/11/07 04:43:18;;;;;;;21.77;14.10;;;;;;;6.77;100.00;98608.56;4946671;29;20055;-80
2021/11/07 04:45:44;;;;;;;19.30;13.73;;;;;;;6.83;100.00;98596.66;4935425;29;20024;-81
2021/11/07 04:48:09;;;;;;;21.48;13.52;;;;;;;6.91;100.00;98582.63;4955577;29;20027;-81
2021/11/07 04:50:38;;;;;;;19.48;13.25;;;;;;;6.89;100.00;98573.91;4938084;29;20052;-79
2021/11/07 04:53:09;;;;;;;19.80;13.45;;;;;;;6.93;100.00;98564.13;4938700;29;20055;-81
2021/11/07 04:55:38;;;;;;;22.30;14.45;;;;;;;6.81;100.00;98533.56;4955752;29;20090;-81
2021/11/07 04:58:04;;;;;;;21.63;14.35;;;;;;;6.81;100.00;98545.28;4957296;29;20030;-81
2021/11/07 05:00:31;;;;;;;23.42;15.70;;;;;;;6.83;100.00;98550.44;4955260;29;20028;-77
2021/11/07 05:02:57;;;;;;;26.25;15.70;;;;;;;6.83;100.00;98564.03;4957183;28;20090;-81
2021/11/07 05:05:22;;;;;;;21.85;14.65;;;;;;;6.82;100.00;98556.97;4956395;29;20027;-79
2021/11/07 05:07:48;;;;;;;20.88;15.20;;;;;;;6.91;100.00;98567.13;4940039;29;20032;-81
2021/11/07 05:10:14;;;;;;;20.58;13.48;;;;;;;6.94;100.00;98571.22;4956470;29;20031;-81
2021/11/07 05:12:40;;;;;;;18.70;13.45;;;;;;;6.97;100.00;98568.00;4956114;29;20031;-81
2021/11/07 05:15:06;;;;;;;18.40;12.52;;;;;;;7.06;100.00;98566.44;4953177;29;20473;-80
2021/11/07 05:17:32;;;;;;;24.15;13.48;;;;;;;7.12;100.00;98568.13;4958636;29;20050;-81
2021/11/07 05:19:57;;;;;;;18.13;13.27;;;;;;;7.15;100.00;98581.22;4941134;29;20194;-80
2021/11/07 05:22:23;;;;;;;18.65;12.98;;;;;;;7.18;100.00;98588.88;4945332;29;20039;-79
2021/11/07 05:24:48;;;;;;;21.60;14.52;;;;;;;7.16;100.00;98593.75;4944166;29;20020;-80
2021/11/07 05:27:15;;;;;;;19.38;13.57;;;;;;;7.13;100.00;98580.66;4922378;29;20032;-80
2021/11/07 05:29:41;;;;;;;21.23;14.05;;;;;;;7.15;100.00;98588.56;4917687;29;20039;-77
2021/11/07 05:32:07;;;;;;;21.55;13.80;;;;;;;7.14;100.00;98582.28;4917293;29;20036;-79
2021/11/07 05:34:33;;;;;;;21.95;13.30;;;;;;;7.17;100.00;98600.84;4918304;29;20051;-78
2021/11/07 05:36:58;;;;;;;19.42;12.18;;;;;;;7.18;100.00;98594.31;4915990;29;20541;-78
2021/11/07 05:39:24;;;;;;;19.17;13.27;;;;;;;7.20;100.00;98586.72;4899527;29;20070;-78
2021/11/07 05:41:50;;;;;;;22.75;15.25;;;;;;;7.23;100.00;98575.34;4915587;29;20072;-78
2021/11/07 05:44:16;;;;;;;18.77;13.20;;;;;;;7.21;100.00;98572.03;4915666;29;20035;-78
2021/11/07 05:46:43;;;;;;;24.05;14.73;;;;;;;7.09;100.00;98579.53;4915857;29;20028;-78
2021/11/07 05:49:09;;;;;;;24.67;14.02;;;;;;;7.13;100.00;98574.41;4915961;29;20028;-78
2021/11/07 05:51:38;;;;;;;19.52;13.25;;;;;;;7.11;100.00;98571.13;4914858;29;20056;-78
2021/11/07 05:54:04;;;;;;;23.55;15.73;;;;;;;7.11;100.00;98588.25;4915477;29;20020;-79
2021/11/07 05:56:31;;;;;;;21.00;13.80;;;;;;;7.09;100.00;98587.69;4917948;29;20024;-79
2021/11/07 05:58:57;;;;;;;24.58;15.43;;;;;;;7.02;100.00;98589.78;4900924;29;20056;-78
2021/11/07 06:01:22;;;;;;;22.58;15.23;;;;;;;7.05;100.00;98583.03;4916340;29;20054;-79
2021/11/07 06:03:47;;;;;;;22.77;15.38;;;;;;;7.09;100.00;98568.66;4900224;29;20032;-80
2021/11/07 06:06:13;;;;;;;23.75;15.43;;;;;;;7.02;100.00;98561.81;4922451;29;20513;-80
2021/11/07 06:08:39;;;;;;;25.35;16.10;;;;;;;7.06;100.00;98563.72;4921028;29;20028;-80
2021/11/07 06:11:05;;;;;;;23.70;15.80;;;;;;;7.14;100.00;98563.25;4916508;29;20513;-77
2021/11/07 06:13:30;;;;;;;23.05;14.75;;;;;;;7.12;100.00;98579.03;4915209;29;20032;-79
2021/11/07 06:15:57;;;;;;;23.25;15.88;;;;;;;7.10;100.00;98583.91;4915443;29;20084;-78
2021/11/07 06:18:23;;;;;;;27.90;15.57;;;;;;;7.17;100.00;98584.53;4915586;29;20036;-78
2021/11/07 06:20:49;;;;;;;21.35;14.80;;;;;;;7.03;100.00;98577.84;4915246;29;20390;-78
2021/11/07 06:23:14;;;;;;;23.48;14.45;;;;;;;7.18;100.00;98577.97;4915011;29;20076;-77
2021/11/07 06:25:40;;;;;;;21.08;14.25;;;;;;;7.20;100.00;98586.72;4915172;29;20035;-77
2021/11/07 06:28:06;;;;;;;20.85;14.80;;;;;;;7.07;100.00;98565.38;4916192;29;20047;-78
2021/11/07 06:30:32;;;;;;;23.90;16.33;;;;;;;7.15;100.00;98588.56;4915309;29;20476;-77
2021/11/07 06:32:58;;;;;;;25.95;17.35;;;;;;;7.19;100.00;98576.91;4914860;29;20098;-77
2021/11/07 06:35:24;;;;;;;28.25;16.73;;;;;;;7.21;100.00;98571.19;4916008;29;20055;-80
2021/11/07 06:37:50;;;;;;;21.83;14.93;;;;;;;7.15;100.00;98566.78;4932446;29;20012;-79
2021/11/07 06:40:16;;;;;;;23.40;15.75;;;;;;;7.14;100.00;98570.63;4942404;29;20060;-75
2021/11/07 06:42:42;;;;;;;23.38;15.18;;;;;;;7.16;100.00;98563.84;4959272;28;20064;-82
2021/11/07 06:45:09;;;;;;;29.85;19.17;;;;;;;7.19;100.00;98547.00;4956921;29;20027;-81
2021/11/07 06:47:34;;;;;;;28.55;19.85;;;;;;;7.15;100.00;98534.16;4954794;29;20055;-81
2021/11/07 06:50:00;;;;;;;57.35;36.10;;;;;;;7.11;100.00;98528.41;4959689;28;20024;-79
2021/11/07 06:52:26;;;;;;;29.42;18.52;;;;;;;7.05;100.00;98532.16;4953373;28;20059;-80
2021/11/07 06:54:52;;;;;;;32.95;19.83;;;;;;;6.90;100.00;98532.84;4958586;29;20019;-80
2021/11/07 06:57:18;;;;;;;23.80;16.40;;;;;;;6.93;100.00;98551.38;4929044;29;20035;-79
2021/11/07 06:59:44;;;;;;;24.25;15.65;;;;;;;6.91;100.00;98548.09;4922356;29;20028;-80
2021/11/07 07:02:09;;;;;;;24.88;15.55;;;;;;;7.00;100.00;98540.28;4930618;29;20051;-80
2021/11/07 07:04:35;;;;;;;21.48;13.70;;;;;;;7.01;100.00;98544.66;4944380;29;20034;-81
2021/11/07 07:07:04;;;;;;;22.92;16.00;;;;;;;7.10;100.00;98558.59;4953432;28;20039;-83
2021/11/07 07:09:33;;;;;;;27.10;14.77;;;;;;;7.13;100.00;98558.91;4959062;28;20024;-76
2021/11/07 07:12:08;;;;;;;24.55;15.15;;;;;;;7.20;100.00;98543.22;4959802;28;20035;-77
2021/11/07 07:14:40;;;;;;;22.63;15.07;;;;;;;7.27;100.00;98543.78;4950222;28;20040;-79
2021/11/07 07:20:03;;;;;;;21.75;15.23;;;;;;;7.14;100.00;98530.59;4942382;29;20066;-80
2021/11/07 07:31:25;;;;;;;23.90;14.48;;;;;;;7.18;100.00;98485.50;4932184;29;20469;-78
2021/11/07 07:33:36;;;;;;;25.05;15.35;;;;;;;7.28;100.00;98488.31;4912354;29;20052;-79
2021/11/07 07:36:02;;;;;;;23.80;15.50;;;;;;;7.32;100.00;98491.31;4940569;29;20009;-75
2021/11/07 07:38:27;;;;;;;20.13;14.60;;;;;;;7.42;100.00;98481.31;4919802;29;20037;-76
2021/11/07 07:40:55;;;;;;;22.00;13.68;;;;;;;7.39;100.00;98492.72;4914103;29;20059;-75
2021/11/07 07:43:20;;;;;;;23.45;14.80;;;;;;;7.55;100.00;98501.81;4913977;29;20052;-78
2021/11/07 07:45:46;;;;;;;20.48;14.18;;;;;;;7.83;100.00;98496.00;4914289;29;20039;-78
2021/11/07 07:48:12;;;;;;;19.33;11.93;;;;;;;7.82;100.00;98482.66;4913174;29;20378;-77
2021/11/07 07:50:39;;;;;;;25.58;14.80;;;;;;;7.90;100.00;98480.25;4914100;29;20382;-77
2021/11/07 07:53:08;;;;;;;17.80;12.95;;;;;;;7.96;100.00;98472.91;4914717;29;20100;-77
2021/11/07 07:55:34;;;;;;;20.52;13.45;;;;;;;7.93;100.00;98484.31;4914485;29;20036;-76
2021/11/07 07:58:00;;;;;;;21.17;14.10;;;;;;;7.66;100.00;98499.97;4914196;29;20024;-79
2021/11/07 08:00:27;;;;;;;18.90;12.68;;;;;;;7.93;100.00;98489.78;4914019;29;20371;-76
2021/11/07 08:02:53;;;;;;;20.55;13.20;;;;;;;8.01;100.00;98478.41;4913934;29;20035;-77
2021/11/07 08:05:18;;;;;;;21.27;13.85;;;;;;;7.96;100.00;98470.19;4896667;29;20028;-78
2021/11/07 08:07:44;;;;;;;20.13;13.07;;;;;;;7.94;100.00;98483.25;4913587;29;20028;-77
2021/11/07 08:10:12;;;;;;;22.00;14.50;;;;;;;7.74;100.00;98477.69;4912806;29;20134;-77
2021/11/07 08:12:39;;;;;;;23.08;14.10;;;;;;;7.92;100.00;98453.56;4937199;29;20008;-75
2021/11/07 08:15:09;;;;;;;23.10;14.27;;;;;;;7.99;100.00;98436.97;4943788;29;20035;-76
2021/11/07 08:17:35;;;;;;;20.73;13.93;;;;;;;8.07;100.00;98431.00;4944270;29;20014;-78
2021/11/07 08:20:05;;;;;;;20.17;13.57;;;;;;;8.16;100.00;98428.59;4944116;29;20032;-77
2021/11/07 08:22:31;;;;;;;20.02;14.48;;;;;;;8.21;100.00;98436.75;4953935;28;20028;-76
2021/11/07 08:24:57;;;;;;;19.50;13.60;;;;;;;8.11;100.00;98443.03;4961648;28;20115;-78
2021/11/07 08:27:22;;;;;;;19.90;13.30;;;;;;;7.95;100.00;98428.53;4961399;28;20018;-79
2021/11/07 08:29:54;;;;;;;21.92;13.60;;;;;;;8.03;100.00;98448.97;4961583;28;20040;-79
2021/11/07 08:32:20;;;;;;;22.08;14.55;;;;;;;8.01;100.00;98462.06;4938165;29;20036;-74
2021/11/07 08:34:46;;;;;;;24.38;14.88;;;;;;;7.94;100.00;98451.41;4924355;29;20027;-75
2021/11/07 08:37:14;;;;;;;23.33;15.32;;;;;;;8.02;100.00;98439.16;4908680;29;20024;-75
2021/11/07 08:42:28;;;;;;;19.45;12.50;;;;;;;8.23;100.00;98443.59;4940067;29;20093;-79
2021/11/07 09:03:53;;;;;;;18.85;12.52;;;;;;;12.17;87.49;98419.84;4937843;29;20486;-76
2021/11/07 09:08:45;;;;;;;16.48;10.85;;;;;;;13.24;80.20;98417.16;4943090;29;20031;-78
2021/11/07 09:11:12;;;;;;;14.07;9.98;;;;;;;14.08;75.22;98404.00;4926881;29;20024;-76
2021/11/07 09:13:38;;;;;;;12.68;9.13;;;;;;;15.13;70.41;98399.97;4930803;29;20040;-74
2021/11/07 09:16:04;;;;;;;14.32;9.90;;;;;;;15.60;66.57;98401.25;4916026;29;20143;-74
2021/11/07 09:18:31;;;;;;;13.95;10.23;;;;;;;16.69;63.53;98383.72;4902143;29;20111;-79
2021/11/07 09:21:07;;;;;;;13.05;10.30;;;;;;;16.88;63.01;98381.44;4923930;29;20024;-80
2021/11/07 09:23:41;;;;;;;13.88;9.13;;;;;;;17.57;60.11;98371.91;4958666;28;20007;-79
2021/11/07 09:26:18;;;;;;;11.48;9.07;;;;;;;17.12;58.73;98374.28;4944510;29;20012;-77
2021/11/07 09:28:56;;;;;;;11.43;8.07;;;;;;;17.44;58.48;98372.91;4961554;29;20020;-75
2021/11/07 09:31:37;;;;;;;12.23;8.68;;;;;;;17.92;56.50;98378.09;4944521;29;20042;-76
2021/11/07 09:36:34;;;;;;;8.88;7.38;;;;;;;18.60;54.54;98368.63;4939099;29;20016;-79
2021/11/07 09:41:38;;;;;;;11.38;7.95;;;;;;;18.57;55.19;98371.25;4927511;29;20118;-85
2021/11/07 09:46:47;;;;;;;10.85;8.30;;;;;;;18.62;54.45;98368.28;4933598;29;20032;-75
2021/11/07 09:49:20;;;;;;;9.90;8.20;;;;;;;17.22;56.78;98369.53;4933970;29;20038;-76
2021/11/07 09:51:57;;;;;;;12.30;7.90;;;;;;;17.78;55.34;98372.00;4933639;29;20382;-76
2021/11/07 09:54:24;;;;;;;8.80;6.72;;;;;;;16.78;56.56;98360.47;4916655;29;20532;-76
2021/11/07 09:56:52;;;;;;;8.18;6.13;;;;;;;15.98;59.04;98344.44;4933739;29;20031;-76
2021/11/07 09:59:19;;;;;;;9.88;6.78;;;;;;;15.39;60.97;98351.31;4916647;29;20038;-76
2021/11/07 10:01:46;;;;;;;11.52;6.13;;;;;;;14.78;62.63;98343.81;4934140;29;20032;-75
2021/11/07 10:04:13;;;;;;;13.90;7.75;;;;;;;13.85;68.27;98335.16;4933994;29;20346;-74
2021/11/07 10:07:14;;;;;;;12.73;7.35;;;;;;;12.86;73.57;98325.78;4933525;29;20024;-74
2021/11/07 10:09:39;;;;;;;9.27;6.78;;;;;;;11.95;78.29;98332.69;4929519;29;20047;-75
2021/11/07 10:12:14;;;;;;;10.50;6.65;;;;;;;11.21;83.08;98346.97;4916185;29;20083;-75
2021/11/07 10:14:41;;;;;;;10.80;7.38;;;;;;;11.01;87.00;98342.50;4934701;29;20130;-74
2021/11/07 10:17:27;;;;;;;12.02;8.30;;;;;;;10.77;89.37;98336.16;4915992;29;20047;-74
2021/11/07 10:20:41;;;;;;;13.05;8.45;;;;;;;10.51;91.87;98332.81;4933810;29;20090;-74
2021/11/07 10:23:25;;;;;;;11.00;7.87;;;;;;;10.41;91.95;98338.34;4927958;29;20464;-75
2021/11/07 10:26:03;;;;;;;12.00;7.70;;;;;;;10.77;90.66;98336.16;4897432;29;20731;-74
2021/11/07 10:28:39;;;;;;;14.38;9.05;;;;;;;11.21;86.89;98314.91;4907646;29;20036;-75
2021/11/07 10:31:13;;;;;;;;;;;;;;;11.44;85.96;98307.81;4929091;29;20075;-75
2021/11/07 10:42:50;;;;;;;8.07;5.93;;;;;;;11.44;80.53;98263.97;4963242;28;20063;-82
2021/11/07 10:45:23;;;;;;;10.23;6.93;;;;;;;12.07;80.05;98277.38;4975350;28;20108;-81
2021/11/07 10:48:16;;;;;;;9.95;6.35;;;;;;;13.10;73.41;98277.03;4956689;28;20039;-81
2021/11/07 10:53:28;;;;;;;11.80;7.40;;;;;;;13.01;71.73;98270.59;4940580;29;20547;-80
2021/11/07 10:56:03;;;;;;;9.75;6.65;;;;;;;12.37;75.06;98271.47;4951610;29;20015;-80
2021/11/07 10:58:31;;;;;;;10.90;7.13;;;;;;;11.87;77.95;98255.78;4956172;29;20036;-78
2021/11/07 11:01:00;;;;;;;11.98;7.63;;;;;;;11.74;78.02;98255.41;4926691;29;20039;-80
2021/11/07 11:03:26;;;;;;;9.95;6.57;;;;;;;11.92;77.02;98253.75;4953505;29;20023;-80
2021/11/07 11:06:07;;;;;;;10.77;7.07;;;;;;;12.15;76.16;98252.06;4974999;28;20035;-81
2021/11/07 11:09:20;;;;;;;10.35;6.57;;;;;;;12.58;74.38;98244.47;4968228;29;20115;-79
2021/11/07 11:11:51;;;;;;;10.65;6.95;;;;;;;13.01;73.57;98239.56;4954091;29;20043;-80
2021/11/07 11:34:55;;;;;;;11.38;7.50;;;;;;;11.78;79.24;98209.81;4958411;29;20024;-79
2021/11/07 11:37:28;;;;;;;11.77;7.43;;;;;;;12.10;78.79;98200.84;4940409;29;20035;-80
2021/11/07 11:40:08;;;;;;;10.07;6.65;;;;;;;12.64;76.71;98186.47;4940586;29;20031;-79
2021/11/07 11:45:05;;;;;;;10.63;6.78;;;;;;;12.63;75.42;98182.06;4936396;29;20031;-79
2021/11/07 11:48:02;;;;;;;10.30;6.85;;;;;;;12.50;76.56;98191.09;4934861;28;20054;-70
2021/11/07 12:01:11;;;;;;;13.10;8.27;;;;;;;12.00;80.34;98170.84;4937203;29;20034;-69
2021/11/07 12:09:23;;;;;;;9.32;6.90;;;;;;;12.57;78.74;98164.06;4937789;29;20523;-75
2021/11/07 12:14:51;;;;;;;13.32;7.68;;;;;;;12.72;77.00;98160.22;4936523;29;20035;-76
2021/11/07 12:17:26;;;;;;;11.98;7.00;;;;;;;12.53;79.08;98160.31;4921607;29;20064;-78
2021/11/07 12:19:51;;;;;;;11.88;7.13;;;;;;;12.41;78.80;98159.16;4939404;29;21444;-76
2021/11/07 12:22:23;;;;;;;10.30;7.47;;;;;;;12.02;80.32;98148.63;4936675;29;20122;-76
2021/11/07 12:24:49;;;;;;;12.23;6.78;;;;;;;12.23;79.45;98150.72;4921509;29;20122;-77
2021/11/07 12:27:36;;;;;;;14.07;7.68;;;;;;;12.31;79.42;98140.97;4938591;29;20043;-77
2021/11/07 12:30:10;;;;;;;12.60;7.10;;;;;;;12.16;79.96;98127.53;4939590;29;20031;-76
2021/11/07 12:32:38;;;;;;;11.18;7.43;;;;;;;11.97;80.92;98121.28;4941310;29;20103;-77
2021/11/07 12:40:40;;;;;;;15.32;8.80;;;;;;;11.19;84.38;98100.00;4935807;29;20038;-77
2021/11/07 12:43:30;;;;;;;12.60;8.00;;;;;;;11.34;85.53;98101.72;4935031;29;20050;-75
2021/11/07 12:46:10;;;;;;;11.90;7.60;;;;;;;11.26;84.87;98114.16;4921979;29;20058;-79
2021/11/07 12:48:46;;;;;;;12.23;7.50;;;;;;;11.09;85.37;98100.97;4919352;29;20032;-76
2021/11/07 12:51:32;;;;;;;12.65;7.97;;;;;;;10.96;86.76;98101.72;4921685;29;21351;-77
2021/11/07 12:54:02;;;;;;;24.38;10.43;;;;;;;10.92;88.39;98110.78;4937905;29;20046;-76
2021/11/07 12:56:40;;;;;;;14.38;8.48;;;;;;;10.80;88.62;98110.41;4937893;29;20043;-77
2021/11/07 12:59:15;;;;;;;14.50;7.90;;;;;;;10.88;89.66;98091.41;4921082;29;20036;-77
2021/11/07 13:02:09;;;;;;;13.40;8.73;;;;;;;11.07;88.29;98078.56;4938008;29;20028;-76
2021/11/07 13:05:06;;;;;;;15.45;8.50;;;;;;;10.98;87.63;98066.63;4936743;29;20061;-77
2021/11/07 13:08:05;;;;;;;13.20;8.05;;;;;;;10.77;88.50;98078.97;4911703;29;20521;-77
2021/11/07 13:13:22;;;;;;;51.45;22.42;;;;;;;10.61;90.49;98070.16;4937737;29;20097;-78
2021/11/07 13:34:28;;;;;;;19.80;9.98;;;;;;;10.73;89.85;98062.31;4950328;29;20011;-78
2021/11/07 13:36:55;;;;;;;26.25;14.00;;;;;;;10.94;89.62;98051.09;4920761;29;20039;-77
2021/11/07 13:39:31;;;;;;;24.58;14.38;;;;;;;10.84;89.25;98032.88;4921320;29;20392;-77
2021/11/07 13:42:03;;;;;;;;;;;;;;;10.60;90.37;98034.88;4922312;29;20027;-77
2021/11/07 13:44:36;;;;;;;17.92;10.77;;;;;;;10.39;92.57;98034.31;4937602;29;19927;-77
2021/11/07 13:47:04;;;;;;;16.75;10.43;;;;;;;10.35;92.77;98021.50;4921365;29;20035;-77
2021/11/07 13:49:30;;;;;;;15.88;10.80;;;;;;;10.39;92.52;98017.09;4924376;29;20031;-78
2021/11/07 13:51:59;;;;;;;16.08;10.02;;;;;;;10.42;91.70;98019.25;4937562;29;20032;-78
2021/11/07 13:54:26;;;;;;;13.70;9.43;;;;;;;10.47;92.53;98027.38;4935763;29;20042;-76
2021/11/07 13:56:52;;;;;;;14.60;9.55;;;;;;;10.37;92.37;98017.38;4935741;29;20036;-77
2021/11/07 13:59:28;;;;;;;21.75;11.32;;;;;;;10.53;92.66;98005.13;4933569;29;20039;-76
2021/11/07 14:01:53;;;;;;;15.20;9.52;;;;;;;10.37;93.06;98000.97;4922598;29;20046;-76
2021/11/07 14:04:19;;;;;;;73.72;34.08;;;;;;;10.41;93.76;97999.28;4923741;29;20047;-76
2021/11/07 14:06:45;;;;;;;30.60;17.20;;;;;;;10.38;94.51;97988.94;4939379;29;20031;-77
2021/11/07 14:09:10;;;;;;;18.13;11.95;;;;;;;10.41;94.68;97982.88;4939992;29;20086;-77
2021/11/07 14:11:38;;;;;;;30.52;17.40;;;;;;;10.47;94.32;97998.09;4940399;29;20040;-77